Wild Iris — 2BKM2 — position and weather

sailwx.info

Track history (hours):
 
Tides and Currents Weather Stations Pressure Air Temp Water Temp Dewpoint Dewpoint Depression Visibility Wind Speed Wind Dir Waves Ship Positions

Wild Iris

Last reported at 2017-Sep-17 15:48 UTC. Time now 2017-Sep-21 07:10 UTC.
Position N 28°08' W 015°25'.

Length 11 m.

Type: Sailing vessel. MMSI: 235066909.

Date/timePositionNaut miles runAvg speedWind from/ knotsBaromVisibWave heightAir tempDewpointWater temp
2017-Sep-17 15:48N 28°08' W 015°25'0 1.0
2017-Sep-17 15:27N 28°08' W 015°25'2 4.9
2017-Sep-17 14:57N 28°07' W 015°23'4 7.7
2017-Sep-17 14:27N 28°06' W 015°18'4 7.9
2017-Sep-17 13:58N 28°06' W 015°14'4 8.3
2017-Sep-17 13:27N 28°05' W 015°09'4 8.5
2017-Sep-17 12:57N 28°05' W 015°04'4 8.4
2017-Sep-17 12:27N 28°04' W 014°60'4 8.2
2017-Sep-17 11:57N 28°04' W 014°55'4 8.4
2017-Sep-17 11:26N 28°03' W 014°50'4 8.0
2017-Sep-17 10:56N 28°03' W 014°46'4 7.9
2017-Sep-17 10:25N 28°04' W 014°41'4 7.6
2017-Sep-17 09:55N 28°04' W 014°37'3 6.2
2017-Sep-17 09:24N 28°03' W 014°33'6 4.7
2017-Sep-17 08:03N 28°03' W 014°26'0 2.8
2017-Sep-17 08:00N 28°03' W 014°26'2 3.3
2017-Sep-17 07:30N 28°02' W 014°24'2 4.0
2017-Sep-17 07:00N 28°03' W 014°22'1 0.0
2017-Sep-15 13:32N 28°03' W 014°21'0 0.4
2017-Sep-15 13:29N 28°03' W 014°21'1 1.7
2017-Sep-15 12:58N 28°03' W 014°22'0 0.3
2017-Sep-15 12:30N 28°03' W 014°22'1 2.0
2017-Sep-15 12:00N 28°02' W 014°21'15 6.0
2017-Sep-15 09:27N 28°09' W 014°05'6 0.3
2017-Sep-14 16:22N 28°12' W 013°60'1 2.7
2017-Sep-14 15:52N 28°12' W 013°58'2 5.4
2017-Sep-14 15:30N 28°13' W 013°56'4 8.3
2017-Sep-14 15:00N 28°15' W 013°53'4 7.4
2017-Sep-14 14:30N 28°18' W 013°50'4 6.9
2017-Sep-14 13:59N 28°22' W 013°50'3 6.4
2017-Sep-14 13:29N 28°25' W 013°50'3 6.2
2017-Sep-14 13:00N 28°28' W 013°51'7 0.3
2017-Sep-13 14:35N 28°35' W 013°49'6 3.8
2017-Sep-13 12:55N 28°41' W 013°49'9 0.2
2017-Sep-11 11:10N 28°50' W 013°46'1 6.7
2017-Sep-11 10:57N 28°51' W 013°44'3 6.7
2017-Sep-11 10:26N 28°52' W 013°40'3 6.2
2017-Sep-11 10:00N 28°53' W 013°38'3 6.2
2017-Sep-11 09:30N 28°55' W 013°35'3 5.9
2017-Sep-11 09:00N 28°57' W 013°32'1 2.0
2017-Sep-11 08:30N 28°58' W 013°32'  
Track history (hours):
 
Tides and Currents Weather Stations Pressure Air Temp Water Temp Dewpoint Dewpoint Depression Visibility Wind Speed Wind Dir Waves Ship Positions

Wild Iris

Last reported at 2017-Sep-17 15:48 UTC. Time now 2017-Sep-21 07:10 UTC.
Position N 28°08' W 015°25'.

Length 11 m.

Type: Sailing vessel. MMSI: 235066909.

Date/timePositionNaut miles runAvg speedWind from/ knotsBaromVisibWave heightAir tempDewpointWater temp
2017-Sep-17 15:48N 28°08' W 015°25'0 1.0
2017-Sep-17 15:27N 28°08' W 015°25'2 4.9
2017-Sep-17 14:57N 28°07' W 015°23'4 7.7
2017-Sep-17 14:27N 28°06' W 015°18'4 7.9
2017-Sep-17 13:58N 28°06' W 015°14'4 8.3
2017-Sep-17 13:27N 28°05' W 015°09'4 8.5
2017-Sep-17 12:57N 28°05' W 015°04'4 8.4
2017-Sep-17 12:27N 28°04' W 014°60'4 8.2
2017-Sep-17 11:57N 28°04' W 014°55'4 8.4
2017-Sep-17 11:26N 28°03' W 014°50'4 8.0
2017-Sep-17 10:56N 28°03' W 014°46'4 7.9
2017-Sep-17 10:25N 28°04' W 014°41'4 7.6
2017-Sep-17 09:55N 28°04' W 014°37'3 6.2
2017-Sep-17 09:24N 28°03' W 014°33'6 4.7
2017-Sep-17 08:03N 28°03' W 014°26'0 2.8
2017-Sep-17 08:00N 28°03' W 014°26'2 3.3
2017-Sep-17 07:30N 28°02' W 014°24'2 4.0
2017-Sep-17 07:00N 28°03' W 014°22'1 0.0
2017-Sep-15 13:32N 28°03' W 014°21'0 0.4
2017-Sep-15 13:29N 28°03' W 014°21'1 1.7
2017-Sep-15 12:58N 28°03' W 014°22'0 0.3
2017-Sep-15 12:30N 28°03' W 014°22'1 2.0
2017-Sep-15 12:00N 28°02' W 014°21'15 6.0
2017-Sep-15 09:27N 28°09' W 014°05'6 0.3
2017-Sep-14 16:22N 28°12' W 013°60'1 2.7
2017-Sep-14 15:52N 28°12' W 013°58'2 5.4
2017-Sep-14 15:30N 28°13' W 013°56'4 8.3
2017-Sep-14 15:00N 28°15' W 013°53'4 7.4
2017-Sep-14 14:30N 28°18' W 013°50'4 6.9
2017-Sep-14 13:59N 28°22' W 013°50'3 6.4
2017-Sep-14 13:29N 28°25' W 013°50'3 6.2
2017-Sep-14 13:00N 28°28' W 013°51'7 0.3
2017-Sep-13 14:35N 28°35' W 013°49'6 3.8
2017-Sep-13 12:55N 28°41' W 013°49'9 0.2
2017-Sep-11 11:10N 28°50' W 013°46'1 6.7
2017-Sep-11 10:57N 28°51' W 013°44'3 6.7
2017-Sep-11 10:26N 28°52' W 013°40'3 6.2
2017-Sep-11 10:00N 28°53' W 013°38'3 6.2
2017-Sep-11 09:30N 28°55' W 013°35'3 5.9
2017-Sep-11 09:00N 28°57' W 013°32'1 2.0
2017-Sep-11 08:30N 28°58' W 013°32'  

Dump ship's entire track history